createdAt,value
2022-11-29T00:01:40.997Z,19.33
2022-11-29T00:04:09.499Z,19.10
2022-11-29T00:06:37.776Z,20.65
2022-11-29T00:09:09.487Z,18.50
2022-11-29T00:11:57.333Z,18.75
2022-11-29T00:14:27.250Z,17.90
2022-11-29T00:16:57.245Z,18.88
2022-11-29T00:19:25.331Z,17.92
2022-11-29T00:21:53.323Z,18.27
2022-11-29T00:24:22.981Z,19.63
2022-11-29T00:26:52.074Z,17.65
2022-11-29T00:29:20.490Z,19.15
2022-11-29T00:31:48.623Z,18.73
2022-11-29T00:34:16.703Z,18.23
2022-11-29T00:36:45.198Z,19.30
2022-11-29T00:39:13.764Z,19.45
2022-11-29T00:41:43.573Z,19.27
2022-11-29T00:44:18.442Z,19.60
2022-11-29T00:46:48.293Z,19.80
2022-11-29T00:49:16.661Z,18.73
2022-11-29T00:51:44.809Z,20.42
2022-11-29T00:54:13.112Z,20.33
2022-11-29T00:56:41.104Z,19.40
2022-11-29T00:59:10.858Z,18.52
2022-11-29T01:01:38.872Z,17.20
2022-11-29T01:04:06.977Z,16.58
2022-11-29T01:06:35.082Z,16.25
2022-11-29T01:09:03.388Z,15.07
2022-11-29T01:11:32.134Z,15.73
2022-11-29T01:14:02.929Z,15.68
2022-11-29T01:16:33.194Z,16.23
2022-11-29T01:19:01.548Z,16.50
2022-11-29T01:21:29.575Z,17.00
2022-11-29T01:23:58.396Z,17.88
2022-11-29T01:26:27.934Z,18.08
2022-11-29T01:28:57.655Z,17.77
2022-11-29T01:31:28.623Z,16.52
2022-11-29T01:34:00.048Z,18.38
2022-11-29T01:36:28.525Z,18.75
2022-11-29T01:38:56.936Z,18.55
2022-11-29T01:41:27.117Z,19.08
2022-11-29T01:43:59.205Z,20.00
2022-11-29T01:46:29.041Z,19.75
2022-11-29T01:49:04.816Z,20.23
2022-11-29T01:51:35.640Z,20.70
2022-11-29T01:54:04.455Z,19.88
2022-11-29T01:56:35.788Z,20.90
2022-11-29T01:59:07.778Z,20.50
2022-11-29T02:01:37.416Z,19.42
2022-11-29T02:04:07.913Z,18.95
2022-11-29T02:06:37.263Z,18.90
2022-11-29T02:09:06.249Z,19.33
2022-11-29T02:11:49.856Z,18.13
2022-11-29T02:14:41.061Z,17.45
2022-11-29T02:17:15.573Z,18.52
2022-11-29T02:20:37.059Z,18.75
2022-11-29T02:23:24.661Z,17.63
2022-11-29T02:26:10.883Z,17.50
2022-11-29T02:29:13.051Z,17.10
2022-11-29T02:32:19.752Z,17.10
2022-11-29T02:35:07.779Z,16.88
2022-11-29T02:38:00.475Z,16.50
2022-11-29T02:40:56.795Z,16.45
2022-11-29T02:43:51.681Z,15.10
2022-11-29T02:46:43.003Z,16.17
2022-11-29T02:49:17.988Z,15.07
2022-11-29T02:51:57.081Z,15.25
2022-11-29T02:54:30.944Z,15.73
2022-11-29T02:57:04.070Z,16.45
2022-11-29T02:59:54.260Z,16.20
2022-11-29T03:02:30.090Z,15.68
2022-11-29T03:05:08.081Z,16.75
2022-11-29T03:07:45.591Z,15.82
2022-11-29T03:10:27.019Z,15.48
2022-11-29T03:12:56.849Z,16.98
2022-11-29T03:15:31.176Z,16.73
2022-11-29T03:18:14.462Z,16.42
2022-11-29T03:20:59.097Z,16.25
2022-11-29T03:23:35.466Z,16.58
2022-11-29T03:26:08.170Z,17.00
2022-11-29T03:28:41.039Z,16.23
2022-11-29T03:31:17.303Z,16.63
2022-11-29T03:33:53.556Z,15.82
2022-11-29T03:36:30.841Z,16.88
2022-11-29T03:39:05.734Z,16.90
2022-11-29T03:41:41.941Z,15.98
2022-11-29T03:44:17.076Z,16.30
2022-11-29T03:46:51.479Z,16.45
2022-11-29T03:49:26.629Z,16.17
2022-11-29T03:52:02.463Z,16.48
2022-11-29T03:54:44.068Z,16.17
2022-11-29T03:57:14.988Z,17.05
2022-11-29T03:59:56.338Z,17.15
2022-11-29T04:03:09.569Z,17.08
2022-11-29T04:06:06.944Z,17.63
2022-11-29T04:08:54.662Z,16.40
2022-11-29T04:12:01.697Z,16.92
2022-11-29T04:14:44.051Z,17.42
2022-11-29T04:17:44.037Z,18.67
2022-11-29T04:20:40.343Z,18.77
2022-11-29T04:23:33.780Z,18.17
2022-11-29T04:26:22.281Z,19.85
2022-11-29T04:29:09.764Z,19.38
2022-11-29T04:31:55.849Z,19.10
2022-11-29T04:34:57.620Z,21.15
2022-11-29T04:37:55.768Z,20.40
2022-11-29T04:40:37.543Z,25.20
2022-11-29T04:43:22.446Z,21.45
2022-11-29T04:46:15.111Z,22.08
2022-11-29T04:49:03.058Z,20.83
2022-11-29T04:51:49.345Z,23.77
2022-11-29T04:54:25.257Z,23.77
2022-11-29T04:57:00.121Z,22.25
2022-11-29T04:59:38.576Z,21.40
2022-11-29T05:02:20.814Z,22.50
2022-11-29T05:04:59.333Z,22.17
2022-11-29T05:07:37.491Z,20.70
2022-11-29T05:10:21.560Z,20.92
2022-11-29T05:12:56.886Z,21.08
2022-11-29T05:15:42.429Z,21.80
2022-11-29T05:18:19.873Z,20.13
2022-11-29T05:20:59.767Z,21.25
2022-11-29T05:23:40.986Z,21.95
2022-11-29T05:26:17.095Z,21.77
2022-11-29T05:28:57.563Z,22.88
2022-11-29T05:31:53.136Z,22.40
2022-11-29T05:34:52.031Z,24.80
2022-11-29T05:37:32.602Z,22.70
2022-11-29T05:40:23.650Z,21.90
2022-11-29T05:43:07.308Z,21.50
2022-11-29T05:45:42.072Z,21.48
2022-11-29T05:50:47.450Z,20.40
2022-11-29T05:53:23.023Z,22.52
2022-11-29T05:56:02.900Z,22.50
2022-11-29T05:58:40.269Z,23.52
2022-11-29T06:01:19.233Z,22.83
2022-11-29T06:03:56.744Z,23.05
2022-11-29T06:06:33.906Z,28.95
2022-11-29T06:09:14.159Z,25.35
2022-11-29T06:11:47.052Z,26.15
2022-11-29T06:14:30.098Z,25.85
2022-11-29T06:17:34.358Z,25.88
2022-11-29T06:20:28.537Z,24.52
2022-11-29T06:23:15.546Z,23.75
2022-11-29T06:26:03.722Z,22.73
2022-11-29T06:28:49.564Z,22.02
2022-11-29T06:31:22.118Z,24.35
2022-11-29T06:33:57.398Z,25.88
2022-11-29T06:36:30.905Z,28.30
2022-11-29T06:38:59.626Z,25.80
2022-11-29T06:41:29.901Z,25.83
2022-11-29T06:43:58.417Z,23.48
2022-11-29T06:46:36.871Z,22.98
2022-11-29T06:49:11.164Z,22.10
2022-11-29T06:51:49.330Z,22.35
2022-11-29T06:54:32.746Z,24.00
2022-11-29T06:57:11.515Z,23.05
2022-11-29T06:59:53.937Z,21.70
2022-11-29T07:02:35.384Z,22.95
2022-11-29T07:05:14.876Z,23.17
2022-11-29T07:07:44.339Z,21.38
2022-11-29T07:10:18.332Z,22.20
2022-11-29T07:12:49.757Z,21.63
2022-11-29T07:15:20.469Z,21.67
2022-11-29T07:18:03.866Z,21.13
2022-11-29T07:20:40.807Z,19.90
2022-11-29T07:23:19.516Z,21.70
2022-11-29T07:25:58.548Z,20.48
2022-11-29T07:28:39.728Z,24.58
2022-11-29T07:31:13.177Z,23.75
2022-11-29T07:33:51.365Z,20.00
2022-11-29T07:36:26.720Z,19.13
2022-11-29T07:39:14.093Z,21.52
2022-11-29T07:41:52.814Z,20.75
2022-11-29T07:44:32.617Z,19.70
2022-11-29T07:47:00.658Z,20.30
2022-11-29T07:49:29.269Z,19.63
2022-11-29T07:51:57.496Z,18.98
2022-11-29T07:54:25.772Z,19.70
2022-11-29T07:56:54.197Z,20.33
2022-11-29T07:59:24.031Z,19.35
2022-11-29T08:01:52.807Z,18.00
2022-11-29T08:04:20.811Z,17.55
2022-11-29T08:06:49.318Z,19.33
2022-11-29T08:09:18.106Z,21.08
2022-11-29T08:11:46.238Z,20.45
2022-11-29T08:14:14.231Z,17.88
2022-11-29T08:16:43.846Z,17.92
2022-11-29T08:19:11.848Z,16.67
2022-11-29T08:21:39.966Z,19.58
2022-11-29T08:24:08.348Z,18.10
2022-11-29T08:26:36.392Z,17.17
2022-11-29T08:29:04.731Z,17.90
2022-11-29T08:31:33.412Z,17.63
2022-11-29T08:34:06.199Z,16.77
2022-11-29T08:36:34.379Z,15.98
2022-11-29T08:39:08.882Z,16.02
2022-11-29T08:41:38.348Z,18.30
2022-11-29T08:44:06.952Z,16.70
2022-11-29T08:46:49.354Z,17.90
2022-11-29T08:49:19.059Z,19.13
2022-11-29T08:51:47.231Z,18.23
2022-11-29T08:54:14.382Z,18.88
2022-11-29T08:59:31.379Z,18.00
2022-11-29T09:01:59.388Z,16.88
2022-11-29T09:04:29.353Z,16.13
2022-11-29T09:06:57.408Z,17.40
2022-11-29T09:09:25.382Z,16.73
2022-11-29T09:11:53.595Z,16.55
2022-11-29T09:14:22.858Z,16.02
2022-11-29T09:16:51.065Z,16.13
2022-11-29T09:19:19.135Z,17.40
2022-11-29T09:21:48.653Z,17.67
2022-11-29T09:24:17.007Z,17.77
2022-11-29T09:26:48.349Z,18.00
2022-11-29T09:29:17.566Z,17.30
2022-11-29T09:31:46.130Z,18.52
2022-11-29T09:34:14.823Z,13.82
2022-11-29T09:36:44.084Z,14.23
2022-11-29T09:39:13.520Z,14.32
2022-11-29T09:41:56.130Z,13.93
2022-11-29T09:44:35.341Z,12.52
2022-11-29T09:47:23.793Z,13.68
2022-11-29T09:50:17.732Z,12.35
2022-11-29T09:52:54.464Z,13.18
2022-11-29T09:55:50.548Z,11.95
2022-11-29T09:58:22.790Z,11.27
2022-11-29T10:00:54.127Z,11.15
2022-11-29T10:03:29.475Z,11.77
2022-11-29T10:06:03.494Z,12.13
2022-11-29T10:08:36.696Z,9.80
2022-11-29T10:11:17.541Z,12.65
2022-11-29T10:13:51.530Z,11.98
2022-11-29T10:16:26.861Z,12.77
2022-11-29T10:18:59.899Z,17.27
2022-11-29T10:21:35.553Z,14.10
2022-11-29T10:24:11.344Z,12.38
2022-11-29T10:26:41.147Z,11.70
2022-11-29T10:29:14.003Z,12.65
2022-11-29T10:31:46.943Z,11.88
2022-11-29T10:34:16.838Z,12.20
2022-11-29T10:36:47.958Z,13.57
2022-11-29T10:39:22.980Z,11.07
2022-11-29T10:41:56.748Z,10.55
2022-11-29T10:44:25.714Z,10.70
2022-11-29T10:46:54.454Z,10.57
2022-11-29T10:49:28.293Z,10.93
2022-11-29T10:51:56.252Z,12.63
2022-11-29T10:54:34.564Z,13.27
2022-11-29T10:57:15.031Z,15.30
2022-11-29T10:59:58.700Z,15.88
2022-11-29T11:02:27.629Z,20.67
2022-11-29T11:04:55.689Z,21.15
2022-11-29T11:07:26.630Z,16.77
2022-11-29T11:09:57.162Z,19.20
2022-11-29T11:12:30.025Z,19.42
2022-11-29T11:15:17.506Z,22.13
2022-11-29T11:17:58.342Z,15.55
2022-11-29T11:20:31.398Z,37.83
2022-11-29T11:23:04.779Z,26.70
2022-11-29T11:25:35.151Z,23.95
2022-11-29T11:28:18.116Z,15.90
2022-11-29T11:30:52.328Z,15.70
2022-11-29T11:33:22.750Z,15.68
2022-11-29T11:36:07.499Z,15.02
2022-11-29T11:38:39.037Z,14.70
2022-11-29T11:41:18.052Z,13.10
2022-11-29T11:43:53.955Z,11.93
2022-11-29T11:46:22.431Z,10.48
2022-11-29T11:48:52.504Z,11.43
2022-11-29T11:51:25.587Z,11.10
2022-11-29T11:53:57.092Z,11.02
2022-11-29T11:56:34.445Z,11.02
2022-11-29T11:59:03.951Z,9.25
2022-11-29T12:01:38.140Z,10.07
2022-11-29T12:04:10.170Z,9.27
2022-11-29T12:06:50.010Z,10.95
2022-11-29T12:09:33.884Z,10.80
2022-11-29T12:12:12.250Z,9.73
2022-11-29T12:14:51.415Z,8.50
2022-11-29T12:17:28.843Z,9.05
2022-11-29T12:20:11.032Z,7.95
2022-11-29T12:22:48.253Z,7.60
2022-11-29T12:25:22.618Z,7.63
2022-11-29T12:27:51.180Z,9.90
2022-11-29T12:30:22.347Z,10.25
2022-11-29T12:33:04.149Z,12.20
2022-11-29T12:35:46.404Z,10.63
2022-11-29T12:38:40.688Z,10.40
2022-11-29T12:41:22.631Z,13.60
2022-11-29T12:44:05.062Z,14.10
2022-11-29T12:46:35.664Z,14.85
2022-11-29T12:49:13.964Z,12.15
2022-11-29T12:51:51.650Z,11.38
2022-11-29T12:54:33.679Z,12.90
2022-11-29T12:57:08.965Z,12.48
2022-11-29T13:00:02.674Z,16.48
2022-11-29T13:02:48.481Z,14.63
2022-11-29T13:05:29.843Z,14.00
2022-11-29T13:08:24.565Z,11.85
2022-11-29T13:11:03.808Z,14.98
2022-11-29T13:13:40.780Z,11.55
2022-11-29T13:16:26.290Z,11.85
2022-11-29T13:19:06.004Z,10.30
2022-11-29T13:21:41.000Z,10.27
2022-11-29T13:24:15.623Z,10.82
2022-11-29T13:26:45.392Z,9.75
2022-11-29T13:29:16.603Z,11.90
2022-11-29T13:31:46.644Z,9.73
2022-11-29T13:34:20.974Z,11.45
2022-11-29T13:37:05.870Z,12.45
2022-11-29T13:39:49.485Z,12.95
2022-11-29T13:42:23.526Z,15.52
2022-11-29T13:44:59.967Z,14.02
2022-11-29T13:47:28.448Z,13.20
2022-11-29T13:50:02.436Z,22.67
2022-11-29T13:52:42.951Z,18.38
2022-11-29T13:55:28.660Z,17.15
2022-11-29T13:58:18.815Z,15.75
2022-11-29T14:00:52.039Z,15.90
2022-11-29T14:03:32.932Z,15.93
2022-11-29T14:06:18.694Z,14.07
2022-11-29T14:09:31.326Z,13.40
2022-11-29T14:12:06.753Z,9.40
2022-11-29T14:14:43.136Z,9.10
2022-11-29T14:17:34.371Z,8.27
2022-11-29T14:20:36.099Z,7.78
2022-11-29T14:23:31.872Z,8.15
2022-11-29T14:26:29.556Z,6.90
2022-11-29T14:29:00.747Z,6.20
2022-11-29T14:31:57.890Z,7.00
2022-11-29T14:34:44.295Z,7.20
2022-11-29T14:37:28.171Z,7.07
2022-11-29T14:40:01.933Z,7.25
2022-11-29T14:42:32.749Z,9.63
2022-11-29T14:45:04.864Z,8.82
2022-11-29T14:47:37.111Z,11.07
2022-11-29T14:50:09.888Z,8.90
2022-11-29T14:52:40.817Z,8.63
2022-11-29T14:55:31.632Z,11.20
2022-11-29T14:58:22.965Z,10.90
2022-11-29T15:01:10.096Z,9.52
2022-11-29T15:03:46.397Z,9.52
2022-11-29T15:06:19.161Z,8.38
2022-11-29T15:08:56.797Z,10.15
2022-11-29T15:11:38.148Z,9.15
2022-11-29T15:14:08.716Z,18.85
2022-11-29T15:16:57.847Z,13.90
2022-11-29T15:20:08.327Z,11.43
2022-11-29T15:22:47.926Z,13.40
2022-11-29T15:25:21.197Z,13.50
2022-11-29T15:27:56.129Z,11.13
2022-11-29T15:30:33.293Z,8.73
2022-11-29T15:33:03.759Z,7.32
2022-11-29T15:35:34.033Z,9.68
2022-11-29T15:38:02.641Z,12.98
2022-11-29T15:40:35.501Z,8.10
2022-11-29T15:43:16.920Z,9.50
2022-11-29T15:45:49.120Z,10.60
2022-11-29T15:48:22.398Z,9.55
2022-11-29T15:50:56.019Z,12.27
2022-11-29T15:53:28.838Z,15.27
2022-11-29T15:55:59.197Z,13.57
2022-11-29T15:58:32.139Z,14.90
2022-11-29T16:01:02.460Z,14.52
2022-11-29T16:03:33.987Z,14.77
2022-11-29T16:06:07.151Z,14.63
2022-11-29T16:08:41.100Z,16.77
2022-11-29T16:11:16.423Z,16.63
2022-11-29T16:14:02.488Z,21.08
2022-11-29T16:16:32.793Z,30.45
2022-11-29T16:19:10.317Z,26.58
2022-11-29T16:21:38.764Z,20.65
2022-11-29T16:24:14.593Z,21.55
2022-11-29T16:26:46.499Z,18.23
2022-11-29T16:29:24.696Z,19.52
2022-11-29T16:31:53.521Z,19.33
2022-11-29T16:34:27.596Z,21.55
2022-11-29T16:37:07.495Z,21.85
2022-11-29T16:39:38.436Z,27.67
2022-11-29T16:42:19.415Z,22.83
2022-11-29T16:47:28.703Z,21.83
2022-11-29T16:50:16.914Z,22.23
2022-11-29T16:52:45.664Z,25.00
2022-11-29T16:55:13.843Z,23.58
2022-11-29T16:57:42.532Z,24.90
2022-11-29T17:00:22.686Z,24.33
2022-11-29T17:02:50.788Z,24.63
2022-11-29T17:05:18.795Z,25.05
2022-11-29T17:07:47.399Z,27.27
2022-11-29T17:10:19.106Z,27.92
2022-11-29T17:12:48.605Z,27.27
2022-11-29T17:15:18.618Z,27.92
2022-11-29T17:17:46.649Z,28.17
2022-11-29T17:20:15.474Z,28.77
2022-11-29T17:22:43.528Z,30.45
2022-11-29T17:25:12.078Z,30.13
2022-11-29T17:27:40.145Z,30.67
2022-11-29T17:30:11.251Z,32.58
2022-11-29T17:32:40.896Z,31.83
2022-11-29T17:35:09.428Z,31.80
2022-11-29T17:37:37.380Z,32.13
2022-11-29T17:40:06.157Z,32.67
2022-11-29T17:42:34.219Z,30.40
2022-11-29T17:45:02.309Z,30.02
2022-11-29T17:47:30.339Z,30.15
2022-11-29T17:50:00.180Z,30.23
2022-11-29T17:52:28.232Z,28.75
2022-11-29T17:54:56.236Z,31.83
2022-11-29T17:57:24.944Z,29.73
2022-11-29T17:59:52.943Z,29.00
2022-11-29T18:02:21.235Z,45.78
2022-11-29T18:04:49.327Z,31.42
2022-11-29T18:07:18.828Z,31.77
2022-11-29T18:09:48.432Z,30.25
2022-11-29T18:12:16.645Z,31.52
2022-11-29T18:14:44.662Z,28.83
2022-11-29T18:17:12.835Z,30.25
2022-11-29T18:19:41.085Z,31.08
2022-11-29T18:22:09.245Z,32.50
2022-11-29T18:24:41.268Z,29.88
2022-11-29T18:27:09.327Z,27.58
2022-11-29T18:29:39.258Z,27.77
2022-11-29T18:32:07.486Z,29.15
2022-11-29T18:34:35.512Z,28.35
2022-11-29T18:37:03.521Z,25.25
2022-11-29T18:39:31.516Z,28.42
2022-11-29T18:42:00.920Z,27.52
2022-11-29T18:44:30.234Z,27.13
2022-11-29T18:46:58.628Z,27.52
2022-11-29T18:49:27.536Z,28.85
2022-11-29T18:51:55.535Z,28.05
2022-11-29T18:54:23.533Z,30.50
2022-11-29T18:56:52.288Z,32.17
2022-11-29T18:59:22.986Z,30.88
2022-11-29T19:01:52.606Z,29.52
2022-11-29T19:04:22.368Z,29.90
2022-11-29T19:06:51.072Z,28.15
2022-11-29T19:09:21.952Z,31.50
2022-11-29T19:11:51.283Z,27.52
2022-11-29T19:14:21.161Z,27.60
2022-11-29T19:16:50.236Z,26.77
2022-11-29T19:19:19.644Z,27.73
2022-11-29T19:21:48.036Z,30.77
2022-11-29T19:24:18.125Z,32.25
2022-11-29T19:26:50.087Z,29.35
2022-11-29T19:29:18.595Z,30.80
2022-11-29T19:31:48.178Z,33.17
2022-11-29T19:34:16.232Z,30.05
2022-11-29T19:36:45.141Z,30.90
2022-11-29T19:39:15.685Z,31.98
2022-11-29T19:41:44.970Z,32.75
2022-11-29T19:44:13.769Z,32.92
2022-11-29T19:46:43.648Z,32.58
2022-11-29T19:49:13.329Z,32.17
2022-11-29T19:51:41.821Z,30.13
2022-11-29T19:54:11.816Z,32.42
2022-11-29T19:56:40.708Z,30.42
2022-11-29T19:59:09.067Z,30.33
2022-11-29T20:01:42.788Z,29.92
2022-11-29T20:04:14.162Z,33.72
2022-11-29T20:06:42.787Z,29.88
2022-11-29T20:09:11.284Z,31.48
2022-11-29T20:11:39.372Z,30.23
2022-11-29T20:14:08.190Z,28.75
2022-11-29T20:16:38.935Z,29.63
2022-11-29T20:19:10.755Z,33.28
2022-11-29T20:21:44.922Z,30.30
2022-11-29T20:24:14.515Z,32.28
2022-11-29T20:26:45.459Z,31.67
2022-11-29T20:29:14.558Z,34.42
2022-11-29T20:31:49.549Z,34.75
2022-11-29T20:34:20.288Z,33.97
2022-11-29T20:37:13.163Z,34.75
2022-11-29T20:39:47.465Z,35.20
2022-11-29T20:42:39.376Z,41.22
2022-11-29T20:45:09.625Z,36.38
2022-11-29T20:47:46.164Z,34.28
2022-11-29T20:50:21.757Z,35.40
2022-11-29T20:53:00.537Z,37.83
2022-11-29T20:55:28.641Z,37.60
2022-11-29T20:57:56.720Z,36.22
2022-11-29T21:00:24.898Z,38.05
2022-11-29T21:02:53.071Z,38.63
2022-11-29T21:05:22.260Z,38.60
2022-11-29T21:07:50.398Z,39.90
2022-11-29T21:10:20.144Z,38.17
2022-11-29T21:12:48.943Z,40.00
2022-11-29T21:15:17.891Z,40.60
2022-11-29T21:17:46.614Z,38.90
2022-11-29T21:20:21.869Z,42.30
2022-11-29T21:22:57.181Z,41.83
2022-11-29T21:25:39.189Z,39.83
2022-11-29T21:28:13.413Z,38.28
2022-11-29T21:30:42.495Z,40.47
2022-11-29T21:33:11.324Z,40.00
2022-11-29T21:35:40.939Z,38.88
2022-11-29T21:38:14.342Z,38.42
2022-11-29T21:40:43.795Z,39.75
2022-11-29T21:43:12.168Z,40.80
2022-11-29T21:45:40.249Z,41.53
2022-11-29T21:48:28.610Z,42.15
2022-11-29T21:50:57.727Z,41.47
2022-11-29T21:53:27.963Z,44.40
2022-11-29T21:56:02.715Z,43.42
2022-11-29T21:58:32.658Z,43.15
2022-11-29T22:01:07.320Z,44.72
2022-11-29T22:06:04.859Z,40.83
2022-11-29T22:08:35.524Z,41.35
2022-11-29T22:11:07.197Z,39.95
2022-11-29T22:13:35.793Z,40.25
2022-11-29T22:16:09.007Z,39.25
2022-11-29T22:18:37.688Z,41.97
2022-11-29T22:21:08.319Z,38.00
2022-11-29T22:23:36.380Z,38.90
2022-11-29T22:26:07.828Z,38.83
2022-11-29T22:28:36.908Z,40.17
2022-11-29T22:31:06.642Z,41.30
2022-11-29T22:33:35.801Z,41.17
2022-11-29T22:36:06.002Z,39.97
2022-11-29T22:38:34.517Z,41.95
2022-11-29T22:41:03.383Z,41.90
2022-11-29T22:43:33.643Z,42.03
2022-11-29T22:46:05.888Z,41.85
2022-11-29T22:48:38.385Z,41.33
2022-11-29T22:51:09.541Z,38.40
2022-11-29T22:53:38.876Z,39.95
2022-11-29T22:56:09.990Z,40.45
2022-11-29T22:58:39.857Z,39.30
2022-11-29T23:01:10.979Z,43.40
2022-11-29T23:03:41.146Z,40.50
2022-11-29T23:06:11.049Z,41.45
2022-11-29T23:08:39.755Z,40.70
2022-11-29T23:11:09.363Z,42.08
2022-11-29T23:13:40.838Z,43.65
2022-11-29T23:16:13.017Z,43.95
2022-11-29T23:18:42.338Z,43.90
2022-11-29T23:21:12.535Z,45.50
2022-11-29T23:23:40.624Z,44.63
2022-11-29T23:26:10.056Z,48.53
2022-11-29T23:28:38.159Z,46.78
2022-11-29T23:31:07.611Z,45.63
2022-11-29T23:33:35.767Z,46.65
2022-11-29T23:36:05.950Z,46.47
2022-11-29T23:38:34.163Z,47.65
2022-11-29T23:41:02.462Z,48.13
2022-11-29T23:43:31.435Z,47.67
2022-11-29T23:45:59.875Z,49.72
2022-11-29T23:48:29.379Z,50.13
2022-11-29T23:50:57.403Z,51.33
2022-11-29T23:53:25.456Z,48.97
2022-11-29T23:55:57.540Z,48.28
2022-11-29T23:58:25.571Z,49.30
